Time;durP1;ratioP1;P1;durP2;ratioP2;P2;SDS_P1;SDS_P2;PMS_P1;PMS_P2;Temp;Humidity;BMP_temperature;BMP_pressure;BME280_temperature;BME280_humidity;BME280_pressure;Samples;Min_cycle;Max_cycle;Signal;HPM_P1;HPM_P2
2022/05/28 00:01:40;;;;;;;1.80;0.65;;;;;;;;;;4990068;28;20214;-59
2022/05/28 00:04:08;;;;;;;2.85;0.50;;;;;;;;;;4990546;28;20221;-59
2022/05/28 00:06:37;;;;;;;0.87;0.47;;;;;;;;;;4989995;28;20210;-60
2022/05/28 00:09:04;;;;;;;1.70;0.50;;;;;;;;;;4990371;28;20233;-60
2022/05/28 00:11:32;;;;;;;2.63;0.80;;;;;;;;;;4990177;28;20260;-60
2022/05/28 00:13:59;;;;;;;4.10;0.70;;;;;;;;;;4990451;28;20213;-59
2022/05/28 00:16:26;;;;;;;1.40;0.67;;;;;;;;;;4990041;28;20699;-59
2022/05/28 00:18:53;;;;;;;2.37;0.30;;;;;;;;;;4989980;28;20380;-59
2022/05/28 00:21:21;;;;;;;4.40;0.67;;;;;;;;;;4989607;28;20210;-60
2022/05/28 00:23:50;;;;;;;1.47;0.50;;;;;;;;;;4990383;28;20592;-60
2022/05/28 00:26:17;;;;;;;1.80;0.60;;;;;;;;;;4989887;28;20880;-60
2022/05/28 00:28:44;;;;;;;1.43;0.57;;;;;;;;;;4990436;28;20248;-59
2022/05/28 00:31:11;;;;;;;0.70;0.50;;;;;;;;;;4989400;28;20230;-60
2022/05/28 00:33:38;;;;;;;2.17;0.57;;;;;;;;;;4989922;28;20285;-60
2022/05/28 00:36:08;;;;;;;0.40;0.40;;;;;;;;;;4989468;28;20206;-60
2022/05/28 00:38:35;;;;;;;2.47;0.87;;;;;;;;;;4989941;28;20244;-60
2022/05/28 00:41:04;;;;;;;2.33;0.70;;;;;;;;;;4989504;28;20307;-59
2022/05/28 00:43:31;;;;;;;1.70;0.50;;;;;;;;;;4990060;28;20230;-60
2022/05/28 00:46:01;;;;;;;0.73;0.47;;;;;;;;;;4989262;28;20251;-60
2022/05/28 00:48:29;;;;;;;3.07;1.10;;;;;;;;;;4989705;28;20273;-60
2022/05/28 00:50:57;;;;;;;0.50;0.30;;;;;;;;;;4989295;28;20236;-60
2022/05/28 00:53:24;;;;;;;0.73;0.73;;;;;;;;;;4989503;28;20924;-60
2022/05/28 00:55:51;;;;;;;2.90;0.60;;;;;;;;;;4989475;28;20209;-60
2022/05/28 00:58:19;;;;;;;0.67;0.60;;;;;;;;;;4989567;28;20213;-60
2022/05/28 01:00:46;;;;;;;1.27;0.60;;;;;;;;;;4988897;28;20213;-60
2022/05/28 01:03:19;;;;;;;1.87;0.70;;;;;;;;;;4988394;28;20217;-59
2022/05/28 01:05:49;;;;;;;0.60;0.50;;;;;;;;;;4989482;28;20588;-60
2022/05/28 01:08:19;;;;;;;2.50;0.47;;;;;;;;;;4989542;28;20217;-60
2022/05/28 01:10:50;;;;;;;3.10;0.57;;;;;;;;;;4988965;28;20296;-59
2022/05/28 01:13:23;;;;;;;0.40;0.40;;;;;;;;;;4989189;28;20228;-60
2022/05/28 01:15:53;;;;;;;1.03;0.67;;;;;;;;;;4988889;28;20615;-60
2022/05/28 01:18:23;;;;;;;1.20;0.60;;;;;;;;;;4988957;28;20672;-60
2022/05/28 01:20:51;;;;;;;0.80;0.50;;;;;;;;;;4988542;28;20202;-60
2022/05/28 01:23:22;;;;;;;0.90;0.63;;;;;;;;;;4989088;28;20217;-60
2022/05/28 01:25:53;;;;;;;2.23;1.30;;;;;;;;;;4988917;28;20222;-60
2022/05/28 01:28:23;;;;;;;1.03;0.40;;;;;;;;;;4988681;28;20589;-60
2022/05/28 01:30:50;;;;;;;1.30;0.60;;;;;;;;;;4988217;28;20285;-60
2022/05/28 01:33:18;;;;;;;1.50;0.47;;;;;;;;;;4988938;28;20205;-60
2022/05/28 01:35:45;;;;;;;2.23;0.37;;;;;;;;;;4988935;28;20232;-59
2022/05/28 01:38:13;;;;;;;3.00;0.50;;;;;;;;;;4988815;28;20210;-60
2022/05/28 01:40:41;;;;;;;3.30;1.40;;;;;;;;;;4987895;28;20719;-60
2022/05/28 01:43:11;;;;;;;1.73;0.50;;;;;;;;;;4984207;28;20254;-60
2022/05/28 01:45:41;;;;;;;2.40;0.70;;;;;;;;;;4988080;28;20226;-60
2022/05/28 01:48:08;;;;;;;2.53;0.40;;;;;;;;;;4988530;28;20268;-60
2022/05/28 01:50:38;;;;;;;0.50;0.50;;;;;;;;;;4988242;28;20232;-60
2022/05/28 01:53:07;;;;;;;4.73;0.57;;;;;;;;;;4988027;28;20201;-60
2022/05/28 01:55:34;;;;;;;0.90;0.30;;;;;;;;;;4988853;28;20276;-60
2022/05/28 01:58:02;;;;;;;0.57;0.30;;;;;;;;;;4988571;28;20206;-59
2022/05/28 02:00:29;;;;;;;2.90;0.43;;;;;;;;;;4988493;28;20210;-60
2022/05/28 02:02:58;;;;;;;0.30;0.30;;;;;;;;;;4987954;28;20256;-60
2022/05/28 02:05:25;;;;;;;1.50;0.50;;;;;;;;;;4988450;28;20205;-59
2022/05/28 02:07:52;;;;;;;0.73;0.33;;;;;;;;;;4987717;28;20245;-60
2022/05/28 02:10:20;;;;;;;2.87;0.40;;;;;;;;;;4968988;28;20269;-59
2022/05/28 02:12:53;;;;;;;0.87;0.30;;;;;;;;;;4980440;28;20256;-60
2022/05/28 02:15:25;;;;;;;3.90;0.73;;;;;;;;;;4988555;28;20209;-60
2022/05/28 02:17:53;;;;;;;1.20;0.50;;;;;;;;;;4987681;28;20715;-60
2022/05/28 02:20:24;;;;;;;1.80;0.60;;;;;;;;;;4988236;28;20210;-59
2022/05/28 02:22:53;;;;;;;3.20;0.50;;;;;;;;;;4987794;28;20798;-60
2022/05/28 02:25:23;;;;;;;2.30;0.60;;;;;;;;;;4988274;28;20214;-60
2022/05/28 02:27:51;;;;;;;2.37;0.60;;;;;;;;;;4986888;28;20601;-59
2022/05/28 02:30:18;;;;;;;2.37;0.80;;;;;;;;;;4986812;28;20241;-60
2022/05/28 02:32:45;;;;;;;1.20;0.43;;;;;;;;;;4987283;28;20418;-60
2022/05/28 02:35:13;;;;;;;1.90;0.40;;;;;;;;;;4988034;28;20216;-60
2022/05/28 02:37:41;;;;;;;2.97;0.53;;;;;;;;;;4988026;28;20672;-59
2022/05/28 02:40:09;;;;;;;1.30;0.40;;;;;;;;;;4987989;28;20210;-59
2022/05/28 02:42:36;;;;;;;1.50;0.53;;;;;;;;;;4987629;28;20313;-59
2022/05/28 02:45:03;;;;;;;0.60;0.47;;;;;;;;;;4988271;28;20209;-62
2022/05/28 02:47:30;;;;;;;2.00;0.63;;;;;;;;;;4987799;28;20220;-60
2022/05/28 02:49:57;;;;;;;2.67;0.50;;;;;;;;;;4987924;28;20601;-60
2022/05/28 02:52:24;;;;;;;3.43;0.80;;;;;;;;;;4987638;28;20264;-60
2022/05/28 02:54:53;;;;;;;0.83;0.47;;;;;;;;;;4987598;28;20210;-60
2022/05/28 02:57:20;;;;;;;1.80;0.60;;;;;;;;;;4987582;28;20206;-60
2022/05/28 02:59:47;;;;;;;0.80;0.60;;;;;;;;;;4988131;28;20756;-60
2022/05/28 03:02:14;;;;;;;1.63;0.50;;;;;;;;;;4987253;28;20353;-60
2022/05/28 03:04:41;;;;;;;1.90;0.40;;;;;;;;;;4988049;28;20674;-60
2022/05/28 03:07:08;;;;;;;0.67;0.30;;;;;;;;;;4987712;28;20866;-60
2022/05/28 03:09:35;;;;;;;0.50;0.40;;;;;;;;;;4987548;28;20206;-59
2022/05/28 03:12:04;;;;;;;5.50;0.50;;;;;;;;;;4984868;28;20213;-60
2022/05/28 03:14:31;;;;;;;2.27;0.60;;;;;;;;;;4987968;28;20209;-60
2022/05/28 03:16:58;;;;;;;2.37;0.73;;;;;;;;;;4987484;28;20252;-60
2022/05/28 03:19:25;;;;;;;2.47;0.50;;;;;;;;;;4988079;28;20206;-60
2022/05/28 03:21:52;;;;;;;1.20;0.50;;;;;;;;;;4988370;28;20205;-60
2022/05/28 03:24:19;;;;;;;0.70;0.40;;;;;;;;;;4988562;28;20265;-60
2022/05/28 03:26:46;;;;;;;1.70;0.60;;;;;;;;;;4991730;28;20233;-59
2022/05/28 03:29:16;;;;;;;1.07;0.47;;;;;;;;;;4991647;28;20735;-60
2022/05/28 03:31:43;;;;;;;3.67;0.60;;;;;;;;;;4991506;28;20654;-60
2022/05/28 03:34:10;;;;;;;0.83;0.37;;;;;;;;;;4991461;28;20267;-60
2022/05/28 03:36:37;;;;;;;1.07;0.47;;;;;;;;;;4991557;28;20232;-60
2022/05/28 03:39:04;;;;;;;0.73;0.60;;;;;;;;;;4991447;28;20241;-60
2022/05/28 03:41:32;;;;;;;0.50;0.50;;;;;;;;;;4991633;28;20202;-60
2022/05/28 03:44:00;;;;;;;0.73;0.67;;;;;;;;;;4991453;28;20660;-60
2022/05/28 03:46:29;;;;;;;1.63;0.67;;;;;;;;;;4991207;28;20218;-59
2022/05/28 03:48:58;;;;;;;1.57;0.53;;;;;;;;;;4991352;28;20222;-59
2022/05/28 03:51:25;;;;;;;1.00;0.50;;;;;;;;;;4991024;28;20229;-60
2022/05/28 03:53:52;;;;;;;1.03;0.60;;;;;;;;;;4991294;28;20954;-60
2022/05/28 03:56:19;;;;;;;2.67;0.93;;;;;;;;;;4991249;28;20620;-60
2022/05/28 03:58:47;;;;;;;1.33;0.60;;;;;;;;;;4991387;28;20771;-60
2022/05/28 04:01:15;;;;;;;2.00;0.60;;;;;;;;;;4991094;28;20732;-60
2022/05/28 04:03:43;;;;;;;5.00;0.67;;;;;;;;;;4990805;28;20983;-60
2022/05/28 04:06:10;;;;;;;4.10;0.60;;;;;;;;;;4990877;28;20213;-60
2022/05/28 04:08:40;;;;;;;0.67;0.50;;;;;;;;;;4991039;28;20213;-60
2022/05/28 04:11:08;;;;;;;0.50;0.50;;;;;;;;;;4991076;28;20233;-60
2022/05/28 04:13:35;;;;;;;1.57;0.50;;;;;;;;;;4990866;28;20662;-59
2022/05/28 04:16:02;;;;;;;6.33;0.80;;;;;;;;;;4991009;28;20777;-60
2022/05/28 04:18:29;;;;;;;2.53;0.60;;;;;;;;;;4990815;28;20213;-60
2022/05/28 04:20:57;;;;;;;2.53;0.30;;;;;;;;;;4990904;28;20212;-59
2022/05/28 04:23:24;;;;;;;1.37;0.53;;;;;;;;;;4990675;28;20205;-63
2022/05/28 04:25:51;;;;;;;1.03;0.63;;;;;;;;;;4990795;28;20280;-63
2022/05/28 04:28:19;;;;;;;1.30;0.60;;;;;;;;;;4987545;28;20672;-62
2022/05/28 04:30:46;;;;;;;0.40;0.40;;;;;;;;;;4990572;28;20237;-61
2022/05/28 04:33:13;;;;;;;1.80;0.50;;;;;;;;;;4976325;28;20284;-61
2022/05/28 04:35:40;;;;;;;0.40;0.40;;;;;;;;;;4990505;28;20693;-61
2022/05/28 04:38:08;;;;;;;3.33;0.53;;;;;;;;;;4990172;28;20268;-59
2022/05/28 04:40:35;;;;;;;0.40;0.40;;;;;;;;;;4977159;28;20211;-59
2022/05/28 04:43:02;;;;;;;2.60;0.60;;;;;;;;;;4977538;28;20221;-60
2022/05/28 04:45:29;;;;;;;0.60;0.60;;;;;;;;;;4973926;28;20669;-59
2022/05/28 04:47:57;;;;;;;2.60;0.50;;;;;;;;;;4972714;28;20298;-60
2022/05/28 04:50:24;;;;;;;3.90;0.80;;;;;;;;;;4977454;28;20206;-60
2022/05/28 04:52:51;;;;;;;7.37;0.60;;;;;;;;;;4988827;28;20210;-60
2022/05/28 04:55:19;;;;;;;1.40;0.67;;;;;;;;;;4989717;28;20214;-58
2022/05/28 04:57:48;;;;;;;1.37;0.60;;;;;;;;;;4982467;28;20281;-57
2022/05/28 05:00:21;;;;;;;0.67;0.67;;;;;;;;;;4985181;28;20217;-58
2022/05/28 05:02:48;;;;;;;1.97;0.50;;;;;;;;;;4989915;28;20707;-58
2022/05/28 05:05:15;;;;;;;2.40;0.70;;;;;;;;;;4980231;28;20728;-57
2022/05/28 05:07:42;;;;;;;1.60;0.60;;;;;;;;;;4986356;28;20264;-57
2022/05/28 05:10:09;;;;;;;1.85;0.57;;;;;;;;;;4989547;28;20263;-58
2022/05/28 05:12:38;;;;;;;0.60;0.60;;;;;;;;;;4989880;28;20233;-58
2022/05/28 05:15:05;;;;;;;0.98;0.88;;;;;;;;;;4989589;28;20202;-58
2022/05/28 05:17:32;;;;;;;3.42;0.90;;;;;;;;;;4989889;28;20222;-58
2022/05/28 05:19:59;;;;;;;0.98;0.55;;;;;;;;;;4989760;28;20672;-58
2022/05/28 05:22:26;;;;;;;3.28;0.60;;;;;;;;;;4989683;28;20206;-58
2022/05/28 05:24:53;;;;;;;3.33;0.65;;;;;;;;;;4989527;28;20217;-58
2022/05/28 05:27:20;;;;;;;3.80;0.80;;;;;;;;;;4989629;28;20233;-58
2022/05/28 05:29:49;;;;;;;1.13;0.60;;;;;;;;;;4989462;28;20249;-58
2022/05/28 05:32:16;;;;;;;1.02;0.50;;;;;;;;;;4989565;28;20650;-58
2022/05/28 05:34:45;;;;;;;0.70;0.45;;;;;;;;;;4989459;28;20268;-59
2022/05/28 05:37:13;;;;;;;4.10;0.68;;;;;;;;;;4989639;28;20257;-58
2022/05/28 05:39:40;;;;;;;2.47;0.60;;;;;;;;;;4989379;28;20301;-59
2022/05/28 05:42:07;;;;;;;4.97;0.73;;;;;;;;;;4989442;28;20271;-59
2022/05/28 05:44:34;;;;;;;0.77;0.60;;;;;;;;;;4986048;28;20210;-59
2022/05/28 05:47:02;;;;;;;1.27;0.60;;;;;;;;;;4979526;28;20621;-59
2022/05/28 05:49:29;;;;;;;2.65;0.80;;;;;;;;;;4977617;28;20205;-58
2022/05/28 05:51:56;;;;;;;2.20;0.82;;;;;;;;;;4982962;28;20230;-59
2022/05/28 05:54:25;;;;;;;2.15;1.00;;;;;;;;;;4989165;28;20313;-59
2022/05/28 05:56:52;;;;;;;2.13;0.60;;;;;;;;;;4987219;28;20317;-59
2022/05/28 05:59:19;;;;;;;1.30;0.68;;;;;;;;;;4989243;28;20722;-59
2022/05/28 06:01:46;;;;;;;2.60;0.73;;;;;;;;;;4989189;28;20202;-59
2022/05/28 06:04:14;;;;;;;2.53;0.88;;;;;;;;;;4989132;28;20201;-59
2022/05/28 06:06:42;;;;;;;0.43;0.43;;;;;;;;;;4989413;28;20244;-59
2022/05/28 06:09:09;;;;;;;1.05;0.70;;;;;;;;;;4989063;28;20214;-58
2022/05/28 06:11:36;;;;;;;0.80;0.60;;;;;;;;;;4989020;28;20364;-59
2022/05/28 06:14:04;;;;;;;2.38;0.70;;;;;;;;;;4989032;28;20238;-59
2022/05/28 06:16:31;;;;;;;1.73;0.60;;;;;;;;;;4988941;28;20578;-59
2022/05/28 06:18:58;;;;;;;3.45;0.65;;;;;;;;;;4989121;28;20217;-60
2022/05/28 06:21:27;;;;;;;1.98;0.65;;;;;;;;;;4988795;28;20205;-60
2022/05/28 06:23:55;;;;;;;0.70;0.63;;;;;;;;;;4989008;28;20941;-60
2022/05/28 06:26:22;;;;;;;0.65;0.63;;;;;;;;;;4988769;28;20331;-59
2022/05/28 06:28:49;;;;;;;1.58;1.27;;;;;;;;;;4989099;28;20221;-59
2022/05/28 06:31:16;;;;;;;3.45;0.52;;;;;;;;;;4988707;28;20233;-59
2022/05/28 06:33:44;;;;;;;0.85;0.60;;;;;;;;;;4989048;28;20221;-59
2022/05/28 06:36:12;;;;;;;1.50;0.60;;;;;;;;;;4975994;28;20210;-59
2022/05/28 06:38:41;;;;;;;2.10;0.70;;;;;;;;;;4969495;28;20210;-60
2022/05/28 06:41:08;;;;;;;0.90;0.60;;;;;;;;;;4986422;28;20232;-60
2022/05/28 06:43:35;;;;;;;2.58;0.65;;;;;;;;;;4988843;28;20217;-59
2022/05/28 06:46:07;;;;;;;1.08;0.70;;;;;;;;;;4988747;28;20215;-60
2022/05/28 06:48:35;;;;;;;3.67;0.82;;;;;;;;;;4988530;28;20627;-59
2022/05/28 06:51:01;;;;;;;1.90;0.70;;;;;;;;;;4977852;28;20649;-59
2022/05/28 06:53:29;;;;;;;0.95;0.60;;;;;;;;;;4987396;28;20225;-59
2022/05/28 06:55:57;;;;;;;2.15;0.50;;;;;;;;;;4987604;28;20213;-62
2022/05/28 06:58:24;;;;;;;2.05;0.60;;;;;;;;;;4987871;28;20225;-61
2022/05/28 07:00:51;;;;;;;2.67;0.85;;;;;;;;;;4990003;28;20680;-61
2022/05/28 07:03:20;;;;;;;1.00;0.75;;;;;;;;;;4989490;28;20248;-62
2022/05/28 07:05:47;;;;;;;1.63;0.70;;;;;;;;;;4991166;28;20291;-62
2022/05/28 07:08:14;;;;;;;3.53;0.68;;;;;;;;;;4990746;28;20308;-61
2022/05/28 07:10:44;;;;;;;1.33;0.65;;;;;;;;;;4990879;28;20201;-61
2022/05/28 07:13:12;;;;;;;2.80;0.70;;;;;;;;;;4991330;28;20226;-61
2022/05/28 07:15:39;;;;;;;1.05;0.68;;;;;;;;;;4990490;28;20743;-61
2022/05/28 07:18:07;;;;;;;3.13;0.75;;;;;;;;;;4989088;28;20683;-62
2022/05/28 07:20:34;;;;;;;1.30;0.70;;;;;;;;;;4988389;28;20623;-61
2022/05/28 07:23:07;;;;;;;0.90;0.75;;;;;;;;;;4988633;28;20202;-62
2022/05/28 07:25:34;;;;;;;2.33;0.95;;;;;;;;;;4988768;28;20206;-62
2022/05/28 07:28:24;;;;;;;0.77;0.57;;;;;;;;;;4988622;28;20680;-61
2022/05/28 07:30:50;;;;;;;3.65;1.10;;;;;;;;;;4987148;28;20295;-61
2022/05/28 07:33:17;;;;;;;2.25;0.60;;;;;;;;;;4988370;28;20238;-62
2022/05/28 07:35:44;;;;;;;2.25;0.80;;;;;;;;;;4978681;28;20234;-61
2022/05/28 07:38:11;;;;;;;2.40;0.82;;;;;;;;;;4990763;28;20206;-65
2022/05/28 07:40:38;;;;;;;1.42;1.08;;;;;;;;;;4990693;28;20558;-62
2022/05/28 07:43:05;;;;;;;1.00;0.52;;;;;;;;;;4990800;28;20260;-61
2022/05/28 07:45:32;;;;;;;1.30;0.70;;;;;;;;;;4990883;28;20209;-62
2022/05/28 07:48:00;;;;;;;2.28;0.75;;;;;;;;;;4990681;28;20222;-61
2022/05/28 07:50:27;;;;;;;4.82;1.00;;;;;;;;;;4990632;28;20669;-62
2022/05/28 07:52:57;;;;;;;4.50;0.70;;;;;;;;;;4990649;28;20229;-63
2022/05/28 07:55:24;;;;;;;2.15;0.73;;;;;;;;;;4990493;28;20256;-63
2022/05/28 07:57:51;;;;;;;1.95;0.80;;;;;;;;;;4990542;28;20213;-64
2022/05/28 08:00:18;;;;;;;0.55;0.45;;;;;;;;;;4990286;28;20622;-63
2022/05/28 08:02:45;;;;;;;2.10;0.70;;;;;;;;;;4990313;28;20213;-62
2022/05/28 08:05:14;;;;;;;1.63;0.63;;;;;;;;;;4989719;28;20733;-62
2022/05/28 08:07:41;;;;;;;0.30;0.30;;;;;;;;;;4989848;28;20213;-63
2022/05/28 08:10:08;;;;;;;1.52;0.63;;;;;;;;;;4975119;28;20210;-62
2022/05/28 08:12:35;;;;;;;2.10;0.50;;;;;;;;;;4990003;28;20303;-62
2022/05/28 08:15:02;;;;;;;1.25;0.50;;;;;;;;;;4987983;28;20260;-62
2022/05/28 08:17:31;;;;;;;3.00;0.70;;;;;;;;;;4989449;28;20214;-63
2022/05/28 08:19:58;;;;;;;1.85;0.60;;;;;;;;;;4990450;28;20213;-63
2022/05/28 08:25:10;;;;;;;0.52;0.47;;;;;;;;;;4969210;28;20240;-61
2022/05/28 08:27:38;;;;;;;1.83;0.85;;;;;;;;;;4984623;28;20260;-63
2022/05/28 08:30:05;;;;;;;1.38;0.60;;;;;;;;;;4989922;28;20245;-61
2022/05/28 08:32:32;;;;;;;0.50;0.50;;;;;;;;;;4989346;28;20233;-61
2022/05/28 08:34:59;;;;;;;3.80;0.50;;;;;;;;;;4990233;28;21020;-61
2022/05/28 08:37:28;;;;;;;4.38;0.60;;;;;;;;;;4984061;28;20292;-62
2022/05/28 08:39:55;;;;;;;3.58;0.80;;;;;;;;;;4980142;28;20210;-61
2022/05/28 08:42:23;;;;;;;0.63;0.60;;;;;;;;;;4990315;28;20232;-62
2022/05/28 08:44:51;;;;;;;0.30;0.30;;;;;;;;;;4990248;28;20216;-63
2022/05/28 08:47:19;;;;;;;1.77;0.60;;;;;;;;;;4988647;28;20217;-62
2022/05/28 08:49:47;;;;;;;2.78;0.65;;;;;;;;;;4978312;28;20624;-62
2022/05/28 08:52:16;;;;;;;0.70;0.70;;;;;;;;;;4985974;28;20704;-62
2022/05/28 08:54:56;;;;;;;2.05;0.88;;;;;;;;;;4985815;28;20205;-62
2022/05/28 08:57:27;;;;;;;1.02;0.65;;;;;;;;;;4990532;28;20213;-62
2022/05/28 08:59:57;;;;;;;3.28;0.47;;;;;;;;;;4990041;28;20205;-62
2022/05/28 09:02:29;;;;;;;1.40;0.65;;;;;;;;;;4990156;28;20206;-62
2022/05/28 09:04:57;;;;;;;0.77;0.60;;;;;;;;;;4978818;28;20255;-61
2022/05/28 09:07:24;;;;;;;1.67;0.75;;;;;;;;;;4985397;28;20268;-62
2022/05/28 09:09:54;;;;;;;0.52;0.52;;;;;;;;;;4979027;28;20267;-62
2022/05/28 09:12:25;;;;;;;0.77;0.45;;;;;;;;;;4990184;28;20242;-63
2022/05/28 09:14:52;;;;;;;1.27;0.63;;;;;;;;;;4989332;28;20704;-62
2022/05/28 09:17:24;;;;;;;1.45;0.60;;;;;;;;;;4989812;28;20260;-62
2022/05/28 09:19:52;;;;;;;0.88;0.60;;;;;;;;;;4989916;28;20305;-62
2022/05/28 09:22:19;;;;;;;0.60;0.60;;;;;;;;;;4987014;28;20574;-61
2022/05/28 09:24:46;;;;;;;1.88;0.90;;;;;;;;;;4990308;28;20210;-63
2022/05/28 09:27:30;;;;;;;0.60;0.60;;;;;;;;;;4985081;28;20301;-60
2022/05/28 09:30:03;;;;;;;1.85;0.50;;;;;;;;;;4989198;28;20697;-61
2022/05/28 09:32:37;;;;;;;0.95;0.60;;;;;;;;;;4989708;28;20228;-61
2022/05/28 09:35:09;;;;;;;1.58;0.60;;;;;;;;;;4990139;28;20214;-62
2022/05/28 09:37:39;;;;;;;0.80;0.80;;;;;;;;;;4989820;28;20210;-62
2022/05/28 09:40:10;;;;;;;0.88;0.50;;;;;;;;;;4989732;28;20287;-63
2022/05/28 09:42:47;;;;;;;4.32;0.77;;;;;;;;;;4989840;28;20214;-62
2022/05/28 09:45:20;;;;;;;2.53;0.60;;;;;;;;;;4989811;28;20228;-62
2022/05/28 09:47:48;;;;;;;1.45;0.68;;;;;;;;;;4990018;28;20303;-62
2022/05/28 09:50:21;;;;;;;0.45;0.45;;;;;;;;;;4978927;28;20210;-62
2022/05/28 09:55:51;;;;;;;0.55;0.55;;;;;;;;;;4989924;28;20204;-62
2022/05/28 09:58:21;;;;;;;1.45;0.70;;;;;;;;;;4988039;28;20205;-62
2022/05/28 10:00:49;;;;;;;0.82;0.70;;;;;;;;;;4970045;28;20577;-62
2022/05/28 10:06:12;;;;;;;3.30;0.70;;;;;;;;;;4987653;28;20212;-62
2022/05/28 10:08:39;;;;;;;1.85;0.47;;;;;;;;;;4989488;28;20232;-61
2022/05/28 10:11:07;;;;;;;0.98;0.57;;;;;;;;;;4977501;28;20715;-61
2022/05/28 10:13:44;;;;;;;1.02;0.60;;;;;;;;;;4986623;28;20234;-62
2022/05/28 10:16:12;;;;;;;0.38;0.38;;;;;;;;;;4974501;28;20208;-61
2022/05/28 10:18:40;;;;;;;0.60;0.60;;;;;;;;;;4988618;28;20220;-60
2022/05/28 10:21:09;;;;;;;2.92;0.63;;;;;;;;;;4986441;28;20292;-61
2022/05/28 10:23:37;;;;;;;1.25;0.65;;;;;;;;;;4987699;28;20718;-59
2022/05/28 10:26:04;;;;;;;0.75;0.75;;;;;;;;;;4988135;28;21013;-60
2022/05/28 10:28:32;;;;;;;0.73;0.70;;;;;;;;;;4979719;28;20264;-61
2022/05/28 10:31:01;;;;;;;0.68;0.30;;;;;;;;;;4983932;28;20245;-61
2022/05/28 10:33:30;;;;;;;0.60;0.57;;;;;;;;;;4988121;28;20225;-60
2022/05/28 10:36:07;;;;;;;1.50;0.50;;;;;;;;;;4992121;28;20213;-61
2022/05/28 10:38:36;;;;;;;0.63;0.63;;;;;;;;;;4992599;28;20304;-61
2022/05/28 10:41:13;;;;;;;0.60;0.60;;;;;;;;;;4992367;28;20229;-60
2022/05/28 10:43:40;;;;;;;1.48;0.98;;;;;;;;;;4992545;28;20209;-59
2022/05/28 10:46:12;;;;;;;7.95;3.78;;;;;;;;;;4991456;28;20201;-63
2022/05/28 10:48:51;;;;;;;7.78;4.57;;;;;;;;;;4992392;28;20317;-61
2022/05/28 10:51:21;;;;;;;4.13;2.00;;;;;;;;;;4987855;28;20221;-61
2022/05/28 10:53:56;;;;;;;2.08;1.05;;;;;;;;;;4991452;28;20272;-60
2022/05/28 10:56:29;;;;;;;23.90;9.98;;;;;;;;;;4992302;28;20217;-60
2022/05/28 10:59:02;;;;;;;34.55;14.10;;;;;;;;;;4990982;28;20456;-60
2022/05/28 11:01:37;;;;;;;56.20;23.05;;;;;;;;;;4988421;28;20217;-62
2022/05/28 11:04:17;;;;;;;2.58;1.83;;;;;;;;;;4989855;28;20291;-62
2022/05/28 11:06:56;;;;;;;0.80;0.80;;;;;;;;;;4991024;28;20268;-62
2022/05/28 11:09:26;;;;;;;7.15;3.45;;;;;;;;;;4991593;28;20681;-61
2022/05/28 11:12:01;;;;;;;0.70;0.70;;;;;;;;;;4991278;28;20221;-62
2022/05/28 11:14:35;;;;;;;10.00;6.18;;;;;;;;;;4991298;28;20707;-62
2022/05/28 11:17:08;;;;;;;10.32;5.20;;;;;;;;;;4991529;28;20217;-61
2022/05/28 11:19:49;;;;;;;2.35;1.85;;;;;;;;;;4990307;28;20283;-62
2022/05/28 11:22:23;;;;;;;1.65;1.27;;;;;;;;;;4974183;28;20241;-62
2022/05/28 11:24:55;;;;;;;1.55;0.98;;;;;;;;;;4983694;28;20257;-64
2022/05/28 11:27:30;;;;;;;2.58;1.65;;;;;;;;;;4991269;28;20234;-64
2022/05/28 11:30:03;;;;;;;0.63;0.63;;;;;;;;;;4990211;28;20698;-64
2022/05/28 11:32:34;;;;;;;3.95;1.55;;;;;;;;;;4987090;28;20264;-64
2022/05/28 11:35:04;;;;;;;0.80;0.52;;;;;;;;;;4990590;28;20210;-63
2022/05/28 11:37:33;;;;;;;1.15;0.60;;;;;;;;;;4990734;28;20213;-63
2022/05/28 11:40:01;;;;;;;1.73;1.63;;;;;;;;;;4990419;28;20632;-62
2022/05/28 11:42:41;;;;;;;5.10;1.98;;;;;;;;;;4990916;28;20292;-62
2022/05/28 11:45:12;;;;;;;0.63;0.63;;;;;;;;;;4989500;28;20372;-63
2022/05/28 11:47:46;;;;;;;4.72;2.58;;;;;;;;;;4989338;28;20680;-63
2022/05/28 11:53:06;;;;;;;1.08;0.77;;;;;;;;;;4991335;28;20306;-64
2022/05/28 11:55:35;;;;;;;0.63;0.63;;;;;;;;;;4990580;28;20218;-64
2022/05/28 11:58:05;;;;;;;0.77;0.60;;;;;;;;;;4991200;28;20223;-64
2022/05/28 12:00:33;;;;;;;1.65;1.23;;;;;;;;;;4989445;28;20206;-62
2022/05/28 12:03:04;;;;;;;0.60;0.60;;;;;;;;;;4972481;28;20664;-63
2022/05/28 12:05:41;;;;;;;1.65;0.60;;;;;;;;;;4982244;28;20677;-63
2022/05/28 12:08:08;;;;;;;0.77;0.77;;;;;;;;;;4972157;28;20213;-63
2022/05/28 12:10:41;;;;;;;4.72;0.70;;;;;;;;;;4980877;28;20221;-63
2022/05/28 12:13:09;;;;;;;0.82;0.73;;;;;;;;;;4985404;28;20229;-63
2022/05/28 12:15:37;;;;;;;3.47;0.40;;;;;;;;;;4976585;28;20232;-63
2022/05/28 12:18:13;;;;;;;0.47;0.47;;;;;;;;;;4971539;28;20731;-64
2022/05/28 12:20:51;;;;;;;1.10;1.00;;;;;;;;;;4983798;28;20625;-64
2022/05/28 12:23:28;;;;;;;0.85;0.40;;;;;;;;;;4974942;28;20238;-64
2022/05/28 12:25:55;;;;;;;1.10;0.80;;;;;;;;;;4987399;28;20287;-65
2022/05/28 12:28:26;;;;;;;0.60;0.60;;;;;;;;;;4990083;28;20256;-64
2022/05/28 12:30:57;;;;;;;0.75;0.63;;;;;;;;;;4988546;28;20448;-63
2022/05/28 12:33:30;;;;;;;0.90;0.40;;;;;;;;;;4989614;28;20225;-64
2022/05/28 12:36:06;;;;;;;0.77;0.60;;;;;;;;;;4989656;28;20982;-64
2022/05/28 12:38:42;;;;;;;0.75;0.43;;;;;;;;;;4980823;28;20210;-63
2022/05/28 12:41:16;;;;;;;0.70;0.70;;;;;;;;;;4973869;28;20218;-64
2022/05/28 12:43:45;;;;;;;0.60;0.60;;;;;;;;;;4972239;28;20210;-64
2022/05/28 12:46:14;;;;;;;1.40;0.68;;;;;;;;;;4990262;28;20213;-64
2022/05/28 12:48:43;;;;;;;2.05;0.68;;;;;;;;;;4989399;28;20559;-64
2022/05/28 12:51:22;;;;;;;0.50;0.50;;;;;;;;;;4990034;28;20212;-65
2022/05/28 12:53:51;;;;;;;0.73;0.60;;;;;;;;;;4989438;28;20676;-65
2022/05/28 12:56:29;;;;;;;0.40;0.40;;;;;;;;;;4990036;28;20276;-65
2022/05/28 12:59:07;;;;;;;0.80;0.73;;;;;;;;;;4988977;28;20268;-65
2022/05/28 13:01:36;;;;;;;0.68;0.50;;;;;;;;;;4989887;28;20217;-64
2022/05/28 13:04:08;;;;;;;0.65;0.40;;;;;;;;;;4989169;28;20328;-65
2022/05/28 13:06:36;;;;;;;2.60;0.50;;;;;;;;;;4989905;28;20225;-65
2022/05/28 13:09:07;;;;;;;1.17;0.50;;;;;;;;;;4989268;28;20245;-66
2022/05/28 13:11:36;;;;;;;0.55;0.50;;;;;;;;;;4989680;28;20288;-65
2022/05/28 13:14:13;;;;;;;0.20;0.20;;;;;;;;;;4989284;28;20225;-64
2022/05/28 13:16:54;;;;;;;0.47;0.47;;;;;;;;;;4989555;28;20236;-65
2022/05/28 13:19:27;;;;;;;2.65;0.70;;;;;;;;;;4989251;28;20210;-65
2022/05/28 13:21:59;;;;;;;1.30;0.88;;;;;;;;;;4988729;28;20443;-64
2022/05/28 13:24:44;;;;;;;0.90;0.60;;;;;;;;;;4989137;28;20252;-65
2022/05/28 13:27:18;;;;;;;0.40;0.40;;;;;;;;;;4978193;28;20234;-65
2022/05/28 13:29:58;;;;;;;0.40;0.40;;;;;;;;;;4970194;28;20284;-65
2022/05/28 13:32:28;;;;;;;1.38;0.52;;;;;;;;;;4969200;28;20632;-65
2022/05/28 13:35:04;;;;;;;0.60;0.60;;;;;;;;;;4969438;28;20226;-64
2022/05/28 13:37:32;;;;;;;0.95;0.40;;;;;;;;;;4985891;28;20249;-65
2022/05/28 13:40:00;;;;;;;0.63;0.32;;;;;;;;;;4989409;28;20213;-64
2022/05/28 13:42:29;;;;;;;0.47;0.47;;;;;;;;;;4988248;28;20213;-64
2022/05/28 13:44:57;;;;;;;0.60;0.60;;;;;;;;;;4989301;28;20217;-64
2022/05/28 13:47:27;;;;;;;1.80;0.57;;;;;;;;;;4988740;28;20531;-64
2022/05/28 13:49:54;;;;;;;1.10;0.45;;;;;;;;;;4988997;28;20221;-64
2022/05/28 13:52:23;;;;;;;0.40;0.40;;;;;;;;;;4988562;28;20209;-65
2022/05/28 13:54:53;;;;;;;0.40;0.40;;;;;;;;;;4989049;28;20551;-65
2022/05/28 13:57:21;;;;;;;0.73;0.38;;;;;;;;;;4988690;28;20263;-62
2022/05/28 13:59:49;;;;;;;0.40;0.40;;;;;;;;;;4988612;28;20212;-61
2022/05/28 14:02:18;;;;;;;0.90;0.55;;;;;;;;;;4971653;28;20293;-62
2022/05/28 14:04:46;;;;;;;1.10;0.40;;;;;;;;;;4969225;28;20210;-62
2022/05/28 14:07:21;;;;;;;0.32;0.32;;;;;;;;;;4984572;28;20210;-62
2022/05/28 14:09:50;;;;;;;5.13;2.53;;;;;;;;;;4988262;28;20209;-62
2022/05/28 14:12:20;;;;;;;1.20;1.10;;;;;;;;;;4982097;28;20304;-61
2022/05/28 14:14:47;;;;;;;1.15;1.10;;;;;;;;;;4988475;28;20229;-62
2022/05/28 14:17:19;;;;;;;9.48;5.40;;;;;;;;;;4988591;28;20221;-61
2022/05/28 14:19:48;;;;;;;1.58;0.60;;;;;;;;;;4988132;28;20217;-62
2022/05/28 14:22:21;;;;;;;0.55;0.55;;;;;;;;;;4988275;28;20268;-63
2022/05/28 14:24:50;;;;;;;0.93;0.85;;;;;;;;;;4986062;28;20732;-63
2022/05/28 14:27:20;;;;;;;0.55;0.52;;;;;;;;;;4985097;28;20225;-62
2022/05/28 14:29:48;;;;;;;0.30;0.30;;;;;;;;;;4983588;28;20241;-63
2022/05/28 14:32:16;;;;;;;0.30;0.30;;;;;;;;;;4972655;28;20210;-63
2022/05/28 14:34:45;;;;;;;0.28;0.28;;;;;;;;;;4980558;28;20233;-63
2022/05/28 14:37:22;;;;;;;2.47;0.75;;;;;;;;;;4969951;28;20206;-62
2022/05/28 14:39:51;;;;;;;0.80;0.60;;;;;;;;;;4984131;28;20235;-62
2022/05/28 14:42:22;;;;;;;0.30;0.30;;;;;;;;;;4984926;28;20269;-62
2022/05/28 14:44:49;;;;;;;0.95;0.65;;;;;;;;;;4981509;28;20214;-62
2022/05/28 14:47:20;;;;;;;0.60;0.60;;;;;;;;;;4988030;28;20221;-61
2022/05/28 14:49:51;;;;;;;1.30;0.45;;;;;;;;;;4987035;28;20223;-62
2022/05/28 14:52:19;;;;;;;0.50;0.50;;;;;;;;;;4987879;28;20299;-64
2022/05/28 14:54:52;;;;;;;0.32;0.32;;;;;;;;;;4987418;28;20571;-62
2022/05/28 14:57:23;;;;;;;0.60;0.60;;;;;;;;;;4988494;28;20221;-62
2022/05/28 14:59:50;;;;;;;0.30;0.30;;;;;;;;;;4987087;28;20276;-62
2022/05/28 15:02:19;;;;;;;0.43;0.40;;;;;;;;;;4986872;28;20267;-63
2022/05/28 15:04:46;;;;;;;0.40;0.40;;;;;;;;;;4987629;28;20741;-62
2022/05/28 15:07:22;;;;;;;0.25;0.25;;;;;;;;;;4987643;28;20206;-62